Time;durP1;ratioP1;P1;durP2;ratioP2;P2;SDS_P1;SDS_P2;PMS_P1;PMS_P2;Temp;Humidity;BMP_temperature;BMP_pressure;BME280_temperature;BME280_humidity;BME280_pressure;Samples;Min_cycle;Max_cycle;Signal;HPM_P1;HPM_P2
2022/09/09 00:00:06;;;;;;;7.30;3.72;;;;;;;16.77;85.74;100714.16;5064700;28;20043;-79
2022/09/09 00:02:32;;;;;;;9.05;3.70;;;;;;;16.95;84.23;100701.81;5034240;28;20123;-78
2022/09/09 00:05:26;;;;;;;5.68;3.58;;;;;;;16.92;84.59;100697.81;5056085;28;20036;-79
2022/09/09 00:08:00;;;;;;;4.85;3.30;;;;;;;16.93;84.11;100696.59;5039957;28;20483;-78
2022/09/09 00:10:31;;;;;;;5.38;2.90;;;;;;;17.05;84.06;100695.19;5059448;28;20972;-79
2022/09/09 00:13:18;;;;;;;4.65;2.80;;;;;;;17.05;83.92;100695.19;5042911;28;20503;-79
2022/09/09 00:15:57;;;;;;;6.75;3.78;;;;;;;17.04;83.75;100694.41;5040292;28;20103;-79
2022/09/09 00:18:35;;;;;;;7.10;3.42;;;;;;;16.85;85.65;100684.59;5036497;28;20064;-78
2022/09/09 00:21:15;;;;;;;6.82;3.63;;;;;;;16.79;88.23;100699.59;5033381;28;20064;-78
2022/09/09 00:23:47;;;;;;;4.38;3.10;;;;;;;17.02;84.83;100685.53;5035557;28;20028;-80
2022/09/09 00:26:30;;;;;;;4.97;2.78;;;;;;;16.91;87.15;100696.22;5038633;28;20120;-79
2022/09/09 00:29:17;;;;;;;7.32;3.30;;;;;;;16.84;86.52;100690.66;5059336;28;20040;-79
2022/09/09 00:31:42;;;;;;;5.90;3.00;;;;;;;16.79;87.34;100688.28;5047215;28;20484;-79
2022/09/09 00:34:21;;;;;;;7.40;3.50;;;;;;;16.82;88.79;100691.09;5033408;28;20046;-79
2022/09/09 00:36:50;;;;;;;7.70;3.80;;;;;;;16.48;90.49;100701.63;5033920;28;20033;-79
2022/09/09 00:39:36;;;;;;;9.73;3.17;;;;;;;16.41;90.07;100697.66;5051029;28;20044;-79
2022/09/09 00:42:13;;;;;;;4.93;3.20;;;;;;;16.51;89.53;100709.25;5035695;28;20040;-79
2022/09/09 00:44:46;;;;;;;5.32;2.88;;;;;;;16.36;91.74;100702.97;5029712;28;20725;-79
2022/09/09 00:47:30;;;;;;;7.35;2.85;;;;;;;16.22;91.33;100701.94;5052425;28;20020;-79
2022/09/09 00:50:21;;;;;;;5.50;2.80;;;;;;;16.33;91.69;100701.00;5038018;28;20028;-79
2022/09/09 00:53:19;;;;;;;8.13;3.03;;;;;;;16.51;90.12;100700.75;5034228;28;20037;-79
2022/09/09 00:55:56;;;;;;;7.35;3.00;;;;;;;16.51;91.19;100695.13;5033325;28;20775;-79
2022/09/09 00:58:21;;;;;;;3.70;2.53;;;;;;;16.72;89.42;100697.69;5052792;28;20044;-80
2022/09/09 01:00:57;;;;;;;6.70;3.10;;;;;;;16.36;92.21;100695.31;5034171;28;20043;-80
2022/09/09 01:03:49;;;;;;;8.68;2.83;;;;;;;16.63;90.37;100691.72;5055900;28;20033;-78
2022/09/09 01:06:38;;;;;;;5.20;2.88;;;;;;;16.52;89.63;100682.59;5034564;28;20024;-80
2022/09/09 01:09:19;;;;;;;9.40;2.58;;;;;;;16.39;91.36;100688.81;5032303;28;20041;-79
2022/09/09 01:12:10;;;;;;;5.82;2.67;;;;;;;16.56;91.42;100692.63;5053356;28;20067;-79
2022/09/09 01:14:35;;;;;;;3.40;2.20;;;;;;;16.25;92.56;100694.63;5031752;28;20043;-79
2022/09/09 01:17:24;;;;;;;7.50;2.88;;;;;;;16.37;91.60;100691.25;5034177;28;20055;-80
2022/09/09 01:20:12;;;;;;;5.15;2.30;;;;;;;16.29;93.27;100688.94;5042059;28;20152;-80
2022/09/09 01:23:16;;;;;;;5.88;3.17;;;;;;;16.32;91.61;100694.56;5038534;28;20667;-80
2022/09/09 01:26:03;;;;;;;4.70;2.60;;;;;;;16.66;89.76;100696.53;5049260;28;20166;-79
2022/09/09 01:28:30;;;;;;;6.32;2.95;;;;;;;16.57;91.26;100680.13;5055955;28;20032;-78
2022/09/09 01:30:58;;;;;;;3.65;2.35;;;;;;;16.49;91.04;100687.09;5054249;28;20047;-80
2022/09/09 01:33:24;;;;;;;8.27;3.10;;;;;;;16.45;92.03;100686.31;5040010;28;20020;-78
2022/09/09 01:36:00;;;;;;;5.63;3.10;;;;;;;16.59;89.30;100691.78;5035503;28;20031;-79
2022/09/09 01:38:27;;;;;;;7.32;3.45;;;;;;;16.64;91.83;100685.66;5052195;28;20035;-80
2022/09/09 01:40:53;;;;;;;7.32;3.28;;;;;;;16.69;89.26;100683.59;5054241;28;20052;-79
2022/09/09 01:43:21;;;;;;;6.68;3.15;;;;;;;16.62;89.72;100684.50;5041205;28;20082;-79
2022/09/09 01:45:50;;;;;;;5.43;2.72;;;;;;;16.59;89.89;100683.31;5039805;28;20051;-80
2022/09/09 01:48:17;;;;;;;5.07;3.05;;;;;;;16.66;90.05;100685.25;5051907;28;20033;-80
2022/09/09 01:50:43;;;;;;;6.82;4.43;;;;;;;16.63;91.30;100686.06;5050052;28;20512;-80
2022/09/09 01:53:08;;;;;;;12.15;3.40;;;;;;;16.74;90.63;100695.22;5054835;28;20064;-80
2022/09/09 01:55:39;;;;;;;6.35;3.53;;;;;;;16.55;91.90;100685.38;5050885;28;20131;-80
2022/09/09 01:58:32;;;;;;;5.88;3.80;;;;;;;16.57;90.43;100687.78;5048944;28;20063;-80
2022/09/09 02:01:17;;;;;;;8.23;4.25;;;;;;;16.50;90.78;100682.22;5054876;28;20114;-80
2022/09/09 02:03:51;;;;;;;10.15;4.90;;;;;;;16.53;91.94;100684.19;5057111;28;20044;-81
2022/09/09 02:06:30;;;;;;;5.32;3.65;;;;;;;16.41;92.82;100694.03;5034520;28;20584;-81
2022/09/09 02:08:57;;;;;;;5.93;3.80;;;;;;;16.53;91.16;100687.00;5052616;28;20032;-80
2022/09/09 02:11:25;;;;;;;5.30;4.15;;;;;;;16.61;91.13;100694.19;5054450;28;20550;-82
2022/09/09 02:13:54;;;;;;;7.70;3.72;;;;;;;16.48;91.29;100690.31;5044476;28;20039;-81
2022/09/09 02:16:32;;;;;;;3.72;3.42;;;;;;;16.69;89.40;100684.38;5063706;28;20412;-80
2022/09/09 02:19:04;;;;;;;8.80;3.78;;;;;;;16.76;89.19;100689.94;5056129;28;20037;-80
2022/09/09 02:21:31;;;;;;;7.90;4.25;;;;;;;16.54;90.36;100682.97;5043220;28;20040;-80
2022/09/09 02:24:00;;;;;;;5.75;3.92;;;;;;;16.66;89.18;100683.22;5043382;28;20439;-80
2022/09/09 02:26:26;;;;;;;8.10;4.28;;;;;;;16.70;89.21;100676.69;5039295;28;20123;-80
2022/09/09 02:28:58;;;;;;;6.72;3.47;;;;;;;16.62;88.77;100673.97;5057340;28;20025;-80
2022/09/09 02:31:24;;;;;;;6.43;3.50;;;;;;;16.72;88.78;100675.06;5059988;28;20116;-81
2022/09/09 02:34:01;;;;;;;8.13;5.05;;;;;;;16.49;91.22;100684.25;5057293;28;20472;-80
2022/09/09 02:36:30;;;;;;;8.18;4.05;;;;;;;16.66;88.92;100679.59;5037057;28;20040;-81
2022/09/09 02:38:56;;;;;;;8.02;3.58;;;;;;;16.58;89.34;100683.75;5057908;28;20029;-80
2022/09/09 02:41:42;;;;;;;7.53;3.60;;;;;;;16.70;88.78;100680.34;5052642;28;20044;-80
2022/09/09 02:44:17;;;;;;;5.75;3.28;;;;;;;16.71;88.24;100681.94;5058082;28;20424;-80
2022/09/09 02:47:12;;;;;;;6.93;3.72;;;;;;;16.65;88.69;100677.97;5043077;28;20465;-80
2022/09/09 02:49:52;;;;;;;6.90;4.05;;;;;;;16.45;90.25;100680.69;5058687;28;20035;-81
2022/09/09 02:52:43;;;;;;;7.88;3.70;;;;;;;16.62;88.28;100676.00;5058021;28;20520;-81
2022/09/09 02:55:36;;;;;;;4.28;3.15;;;;;;;16.65;88.09;100669.50;5061097;28;20046;-81
2022/09/09 02:58:06;;;;;;;8.93;3.30;;;;;;;16.55;89.08;100671.25;5008883;28;20056;-80
2022/09/09 03:00:35;;;;;;;6.07;3.83;;;;;;;16.50;90.50;100679.41;5036759;28;20029;-81
2022/09/09 03:03:02;;;;;;;7.18;3.70;;;;;;;16.53;89.43;100675.72;5039221;28;20760;-81
2022/09/09 03:05:27;;;;;;;6.32;3.83;;;;;;;16.53;89.18;100675.72;5053793;28;20083;-81
2022/09/09 03:07:53;;;;;;;7.55;3.92;;;;;;;16.56;88.75;100677.72;5038521;28;20115;-80
2022/09/09 03:10:19;;;;;;;7.78;3.92;;;;;;;16.28;90.79;100681.72;5036880;28;20885;-80
2022/09/09 03:12:44;;;;;;;6.22;4.18;;;;;;;16.38;89.58;100673.09;5058619;28;20063;-80
2022/09/09 03:15:09;;;;;;;9.45;4.72;;;;;;;16.32;90.46;100673.97;5039645;28;20029;-80
2022/09/09 03:17:35;;;;;;;6.32;4.07;;;;;;;16.29;89.71;100667.16;5057855;28;20045;-80
2022/09/09 03:20:02;;;;;;;5.65;3.70;;;;;;;16.43;88.94;100666.97;5051947;28;20121;-81
2022/09/09 03:22:28;;;;;;;7.80;4.03;;;;;;;16.49;88.87;100670.13;5054940;28;20032;-81
2022/09/09 03:24:53;;;;;;;8.52;4.22;;;;;;;16.40;88.97;100684.78;5057654;28;20029;-80
2022/09/09 03:27:19;;;;;;;7.43;4.95;;;;;;;16.41;88.92;100675.06;5055465;28;20140;-81
2022/09/09 03:29:45;;;;;;;5.72;3.97;;;;;;;16.44;88.63;100679.88;5042796;28;20032;-81
2022/09/09 03:32:10;;;;;;;7.03;4.40;;;;;;;16.34;89.28;100675.16;5040859;28;20083;-80
2022/09/09 03:34:38;;;;;;;6.75;3.90;;;;;;;16.27;89.87;100672.41;5055819;28;20467;-80
2022/09/09 03:37:05;;;;;;;9.40;5.53;;;;;;;16.06;91.19;100676.28;5040247;28;20377;-80
2022/09/09 03:39:30;;;;;;;8.27;4.32;;;;;;;16.15;90.75;100672.97;5055487;28;20531;-80
2022/09/09 03:41:56;;;;;;;8.18;4.38;;;;;;;16.23;89.48;100680.13;5038602;28;20036;-81
2022/09/09 03:44:21;;;;;;;8.43;4.90;;;;;;;15.84;92.88;100670.88;5055025;28;20024;-80
2022/09/09 03:46:46;;;;;;;8.02;5.30;;;;;;;16.02;90.87;100673.53;5040405;28;20041;-80
2022/09/09 03:49:12;;;;;;;10.98;6.85;;;;;;;15.94;91.31;100668.34;5042935;28;20182;-81
2022/09/09 03:51:38;;;;;;;8.85;4.90;;;;;;;16.14;89.96;100666.53;5037602;28;20110;-81
2022/09/09 03:54:08;;;;;;;6.82;4.85;;;;;;;16.22;88.95;100675.72;5055986;28;20495;-81
2022/09/09 03:56:34;;;;;;;8.38;5.47;;;;;;;16.23;89.01;100677.31;5054733;28;20064;-80
2022/09/09 03:59:00;;;;;;;8.57;5.63;;;;;;;16.29;88.47;100692.56;5059627;28;20041;-80
2022/09/09 04:01:25;;;;;;;9.63;5.95;;;;;;;15.96;90.57;100692.16;5056233;28;20082;-80
2022/09/09 04:03:51;;;;;;;13.55;6.05;;;;;;;15.81;91.08;100685.03;5039589;28;20032;-80
2022/09/09 04:06:17;;;;;;;10.38;4.95;;;;;;;15.67;92.14;100676.69;5054368;28;20123;-80
2022/09/09 04:08:43;;;;;;;10.32;5.88;;;;;;;15.64;92.76;100693.25;5054794;28;20586;-81
2022/09/09 04:11:09;;;;;;;7.47;5.20;;;;;;;15.85;90.99;100682.97;5032491;28;20138;-81
2022/09/09 04:13:37;;;;;;;11.32;5.90;;;;;;;15.84;91.01;100684.22;5052633;28;20127;-80
2022/09/09 04:16:06;;;;;;;9.38;5.70;;;;;;;15.56;92.67;100676.81;5055246;28;20029;-81
2022/09/09 04:18:32;;;;;;;11.13;5.88;;;;;;;15.57;92.66;100676.38;5057866;28;20036;-80
2022/09/09 04:20:57;;;;;;;16.55;5.78;;;;;;;15.83;90.21;100668.47;5050861;28;20184;-80
2022/09/09 04:23:25;;;;;;;14.73;7.07;;;;;;;15.64;91.93;100673.50;5046227;28;20665;-81
2022/09/09 04:25:52;;;;;;;13.55;6.60;;;;;;;15.43;94.04;100673.66;5036754;28;20078;-81
2022/09/09 04:28:20;;;;;;;12.48;7.78;;;;;;;15.30;93.98;100669.75;5034513;28;20023;-80
2022/09/09 04:30:48;;;;;;;11.93;6.85;;;;;;;15.23;94.24;100660.16;5056712;28;20503;-80
2022/09/09 04:33:14;;;;;;;12.13;6.03;;;;;;;15.19;94.53;100665.00;5056678;28;20025;-80
2022/09/09 04:35:45;;;;;;;12.95;5.95;;;;;;;15.57;92.33;100665.09;5058144;28;20032;-80
2022/09/09 04:38:14;;;;;;;11.20;5.45;;;;;;;15.46;92.72;100664.38;5032242;28;20079;-80
2022/09/09 04:40:42;;;;;;;11.07;5.97;;;;;;;15.53;91.62;100667.13;5051383;28;20183;-80
2022/09/09 04:43:11;;;;;;;8.52;5.82;;;;;;;15.79;90.09;100676.19;5039223;28;20032;-80
2022/09/09 04:45:37;;;;;;;9.65;6.13;;;;;;;15.74;90.37;100665.34;5051718;28;20788;-80
2022/09/09 04:48:02;;;;;;;10.82;6.13;;;;;;;15.72;90.43;100665.78;5056263;28;20032;-80
2022/09/09 04:50:28;;;;;;;13.07;6.47;;;;;;;15.55;91.30;100673.16;5040524;28;20036;-81
2022/09/09 04:52:53;;;;;;;12.07;6.93;;;;;;;15.23;93.36;100662.97;5037898;28;20033;-80
2022/09/09 04:55:19;;;;;;;15.73;8.27;;;;;;;15.23;93.65;100660.16;5053284;28;20069;-80
2022/09/09 04:57:45;;;;;;;10.38;6.13;;;;;;;15.39;92.41;100672.91;5058874;28;20036;-80
2022/09/09 05:00:14;;;;;;;11.90;6.75;;;;;;;15.32;92.54;100668.13;5054940;28;20028;-80
2022/09/09 05:02:41;;;;;;;13.90;7.55;;;;;;;15.16;93.86;100665.84;5054930;28;20039;-80
2022/09/09 05:05:06;;;;;;;13.30;6.97;;;;;;;15.22;93.00;100669.84;5060273;28;20154;-81
2022/09/09 05:07:32;;;;;;;13.05;7.10;;;;;;;15.20;93.09;100668.63;5030317;28;20032;-80
2022/09/09 05:09:57;;;;;;;8.65;5.75;;;;;;;15.29;92.47;100668.19;5026167;28;20029;-80
2022/09/09 05:12:26;;;;;;;12.25;7.63;;;;;;;14.79;96.34;100667.31;5037639;28;20039;-80
2022/09/09 05:14:52;;;;;;;12.18;7.28;;;;;;;14.90;96.34;100663.63;5051860;28;20028;-80
2022/09/09 05:17:18;;;;;;;11.73;7.38;;;;;;;15.25;93.63;100666.16;5051264;28;20500;-80
2022/09/09 05:19:43;;;;;;;14.20;7.47;;;;;;;14.99;95.30;100667.59;5054399;28;20044;-80
2022/09/09 05:22:11;;;;;;;11.52;6.75;;;;;;;15.34;92.62;100670.53;5055243;28;20083;-80
2022/09/09 05:24:37;;;;;;;11.80;6.05;;;;;;;15.23;94.09;100677.06;5034638;28;20071;-80
2022/09/09 05:27:04;;;;;;;13.05;6.93;;;;;;;15.00;95.25;100669.19;5052500;28;20029;-81
2022/09/09 05:29:29;;;;;;;11.52;7.57;;;;;;;15.01;94.92;100661.53;5034030;28;20039;-80
2022/09/09 05:31:54;;;;;;;8.75;6.03;;;;;;;14.92;95.12;100661.19;5034604;28;20033;-80
2022/09/09 05:34:20;;;;;;;10.98;6.25;;;;;;;15.14;93.60;100657.00;5049252;28;20215;-81
2022/09/09 05:36:46;;;;;;;12.30;7.43;;;;;;;15.10;94.14;100658.25;5045874;28;20082;-80
2022/09/09 05:39:12;;;;;;;13.90;6.20;;;;;;;15.02;94.88;100657.50;5046769;28;20068;-80
2022/09/09 05:41:37;;;;;;;7.90;6.38;;;;;;;14.83;96.37;100659.63;5051671;28;20127;-80
2022/09/09 05:44:03;;;;;;;12.07;7.30;;;;;;;15.19;94.66;100652.94;5025423;28;20040;-81
2022/09/09 05:46:28;;;;;;;11.30;7.57;;;;;;;14.92;95.85;100655.56;5043092;28;20028;-80
2022/09/09 05:48:55;;;;;;;12.50;6.53;;;;;;;15.01;94.76;100658.69;5050149;28;20063;-80
2022/09/09 05:51:23;;;;;;;11.07;5.63;;;;;;;15.20;93.99;100665.81;5029400;28;20515;-80
2022/09/09 05:53:50;;;;;;;10.68;6.40;;;;;;;15.29;92.81;100668.19;5030458;28;20028;-81
2022/09/09 05:56:27;;;;;;;11.98;5.97;;;;;;;15.41;91.99;100670.47;5029806;28;20029;-80
2022/09/09 05:58:54;;;;;;;12.63;6.30;;;;;;;15.51;91.49;100663.13;5046474;28;21937;-80
2022/09/09 06:01:28;;;;;;;15.80;8.40;;;;;;;14.98;96.54;100668.00;5048691;28;20082;-80
2022/09/09 06:03:54;;;;;;;9.48;5.80;;;;;;;14.98;95.97;100668.00;5042874;28;20640;-81
2022/09/09 06:06:28;;;;;;;5.53;2.03;;;;;;;16.25;97.95;100672.03;5045714;28;20028;-78
2022/09/09 06:08:57;;;;;;;11.60;3.67;;;;;;;18.22;83.68;100666.06;5042845;28;20032;-78
2022/09/09 06:11:26;;;;;;;10.73;4.60;;;;;;;18.55;81.39;100666.19;5050653;28;20049;-77
2022/09/09 06:13:54;;;;;;;7.65;4.22;;;;;;;18.57;80.41;100671.41;5034620;28;20043;-78
2022/09/09 06:16:23;;;;;;;9.50;4.35;;;;;;;19.03;77.75;100675.25;5037362;28;20705;-78
2022/09/09 06:18:49;;;;;;;10.55;4.15;;;;;;;19.01;77.17;100674.88;5050898;28;20036;-79
2022/09/09 06:21:20;;;;;;;9.23;4.55;;;;;;;19.27;75.25;100675.91;5036086;28;20406;-79
2022/09/09 06:23:46;;;;;;;13.95;5.75;;;;;;;18.96;76.08;100658.41;5046535;28;20033;-78
2022/09/09 06:26:14;;;;;;;8.23;4.70;;;;;;;19.30;73.80;100666.47;5051837;28;20060;-79
2022/09/09 06:28:42;;;;;;;8.55;3.58;;;;;;;19.42;74.37;100667.81;5057919;28;20075;-79
2022/09/09 06:31:10;;;;;;;8.38;4.45;;;;;;;19.41;74.47;100669.06;5032712;28;20052;-79
2022/09/09 06:33:42;;;;;;;9.73;4.53;;;;;;;19.37;74.68;100671.19;5048721;28;20115;-79
2022/09/09 06:36:15;;;;;;;8.38;4.35;;;;;;;19.09;75.81;100667.81;5049899;28;20094;-78
2022/09/09 06:38:42;;;;;;;8.43;4.90;;;;;;;19.40;74.92;100662.59;5050857;28;20067;-77
2022/09/09 06:41:09;;;;;;;7.88;5.38;;;;;;;19.41;74.09;100657.69;5054382;28;20041;-78
2022/09/09 06:43:34;;;;;;;9.90;4.68;;;;;;;19.54;74.48;100655.72;5056897;28;20054;-79
2022/09/09 06:46:21;;;;;;;11.35;5.80;;;;;;;19.37;74.30;100665.50;5052806;28;20028;-78
2022/09/09 06:48:47;;;;;;;9.05;4.82;;;;;;;19.22;75.46;100663.03;5040292;28;20029;-79
2022/09/09 06:51:18;;;;;;;8.23;4.70;;;;;;;19.24;76.00;100677.56;5061456;28;20040;-78
2022/09/09 06:53:45;;;;;;;7.13;4.05;;;;;;;19.48;74.71;100678.19;5059332;28;20097;-78
2022/09/09 06:56:11;;;;;;;10.70;4.40;;;;;;;19.43;74.77;100661.69;5060102;28;20088;-78
2022/09/09 06:58:37;;;;;;;17.45;3.70;;;;;;;19.57;74.03;100657.69;5062255;28;20154;-78
2022/09/09 07:01:06;;;;;;;18.33;4.80;;;;;;;19.27;74.15;100659.66;5061025;28;20544;-78
2022/09/09 07:03:32;;;;;;;8.88;4.53;;;;;;;19.29;75.60;100660.03;5047229;28;20036;-78
2022/09/09 07:05:59;;;;;;;9.80;5.47;;;;;;;18.74;76.42;100660.91;5063312;28;20032;-79
2022/09/09 07:08:24;;;;;;;6.60;3.95;;;;;;;18.86;77.22;100663.09;5047920;28;20119;-79
2022/09/09 07:10:53;;;;;;;7.57;4.22;;;;;;;19.05;77.30;100655.75;5048230;28;20032;-78
2022/09/09 07:13:25;;;;;;;18.88;4.65;;;;;;;18.57;79.75;100654.41;5044154;28;20476;-79
2022/09/09 07:15:51;;;;;;;13.48;4.70;;;;;;;19.03;77.92;100652.56;5035507;28;20028;-78
2022/09/09 07:18:17;;;;;;;8.52;4.72;;;;;;;18.49;77.72;100654.56;5065620;28;20075;-78
2022/09/09 07:20:42;;;;;;;11.45;4.85;;;;;;;18.66;78.83;100657.44;5059895;28;20033;-78
2022/09/09 07:23:08;;;;;;;7.70;4.47;;;;;;;18.47;80.58;100657.03;5044214;28;20036;-78
2022/09/09 07:25:33;;;;;;;10.35;5.00;;;;;;;18.89;78.30;100663.00;5044163;28;20775;-78
2022/09/09 07:27:58;;;;;;;6.43;3.45;;;;;;;18.78;79.40;100664.44;5066737;28;20560;-78
2022/09/09 07:30:24;;;;;;;8.75;4.57;;;;;;;18.68;79.70;100661.44;5062797;28;20218;-78
2022/09/09 07:32:51;;;;;;;15.68;4.43;;;;;;;18.92;78.73;100666.19;5047909;28;20024;-78
2022/09/09 07:35:16;;;;;;;11.25;3.72;;;;;;;18.77;79.56;100658.00;5045801;28;20048;-78
2022/09/09 07:37:42;;;;;;;9.52;4.50;;;;;;;19.03;78.35;100669.56;5047678;28;20075;-78
2022/09/09 07:40:08;;;;;;;12.48;4.10;;;;;;;18.92;78.74;100658.50;5043324;28;20045;-77
2022/09/09 07:42:33;;;;;;;15.95;4.22;;;;;;;18.84;78.15;100659.88;5052088;28;20094;-79
2022/09/09 07:44:59;;;;;;;11.95;3.53;;;;;;;19.09;78.30;100656.47;5058818;28;20020;-79
2022/09/09 07:47:24;;;;;;;10.07;4.13;;;;;;;18.71;79.70;100670.31;5062839;28;20021;-78
2022/09/09 07:49:50;;;;;;;8.32;3.90;;;;;;;19.18;78.14;100665.16;5059189;28;20029;-80
2022/09/09 07:52:16;;;;;;;8.50;3.60;;;;;;;18.99;79.60;100671.69;5063204;28;20090;-79
2022/09/09 07:54:41;;;;;;;10.65;3.85;;;;;;;19.60;76.70;100661.66;5054101;28;20120;-78
2022/09/09 07:57:07;;;;;;;10.60;3.92;;;;;;;19.39;77.41;100660.97;5062171;28;20049;-79
2022/09/09 07:59:33;;;;;;;7.97;3.70;;;;;;;18.96;80.46;100664.09;5049795;28;20028;-79
2022/09/09 08:01:58;;;;;;;12.25;4.57;;;;;;;19.01;79.93;100658.66;5046079;28;20029;-80
2022/09/09 08:04:25;;;;;;;13.20;4.20;;;;;;;17.90;84.21;100671.56;5041392;28;20113;-79
2022/09/09 08:06:54;;;;;;;9.38;3.67;;;;;;;18.43;82.78;100666.84;5063598;28;20024;-78
2022/09/09 08:09:21;;;;;;;12.85;5.63;;;;;;;18.45;82.12;100662.34;5061668;28;20028;-77
2022/09/09 08:11:46;;;;;;;13.05;5.30;;;;;;;18.85;79.16;100670.00;5059891;28;20539;-78
2022/09/09 08:14:13;;;;;;;11.40;4.43;;;;;;;18.39;82.90;100671.81;5047117;28;20062;-77
2022/09/09 08:16:41;;;;;;;14.02;5.70;;;;;;;18.06;84.66;100671.66;5064225;28;20064;-78
2022/09/09 08:19:07;;;;;;;11.57;5.15;;;;;;;18.50;82.68;100666.69;5043755;28;20029;-78
2022/09/09 08:21:36;;;;;;;16.50;5.03;;;;;;;19.18;79.02;100675.69;5058715;28;20024;-78
2022/09/09 08:24:02;;;;;;;13.73;4.75;;;;;;;18.61;82.15;100674.97;5049023;28;20027;-77
2022/09/09 08:26:30;;;;;;;10.20;4.57;;;;;;;18.76;80.96;100666.94;5044639;28;20137;-78
2022/09/09 08:28:58;;;;;;;18.73;6.10;;;;;;;18.16;84.17;100670.63;5041236;28;20029;-79
2022/09/09 08:31:34;;;;;;;10.18;4.10;;;;;;;18.08;83.81;100680.50;5041829;28;20039;-77
2022/09/09 08:34:03;;;;;;;19.15;5.05;;;;;;;17.45;87.37;100684.84;5029880;28;20036;-78
2022/09/09 08:36:30;;;;;;;18.35;5.47;;;;;;;17.01;90.48;100680.31;5057166;28;20036;-77
2022/09/09 08:38:57;;;;;;;12.82;4.85;;;;;;;17.11;89.59;100685.00;5042603;28;21514;-77
2022/09/09 08:41:39;;;;;;;12.18;4.93;;;;;;;17.04;89.55;100693.63;5041225;28;20044;-77
2022/09/09 08:44:43;;;;;;;13.38;4.85;;;;;;;17.17;88.75;100688.94;5038667;28;20024;-81
2022/09/09 08:47:27;;;;;;;13.35;4.28;;;;;;;17.16;89.58;100690.19;5049805;28;20526;-77
2022/09/09 08:50:11;;;;;;;12.20;5.35;;;;;;;17.33;89.51;100681.81;5054131;28;20440;-77
2022/09/09 08:52:42;;;;;;;11.68;5.57;;;;;;;17.39;88.11;100680.13;5040191;28;20051;-80
2022/09/09 08:55:12;;;;;;;10.52;4.15;;;;;;;17.44;88.38;100685.28;5055197;28;20025;-77
2022/09/09 08:57:38;;;;;;;15.77;4.90;;;;;;;17.38;89.74;100684.97;5038017;28;20551;-77
2022/09/09 09:00:04;;;;;;;15.35;4.75;;;;;;;17.44;90.10;100700.25;5055415;28;20028;-81
2022/09/09 09:02:39;;;;;;;18.88;4.90;;;;;;;17.39;89.12;100702.75;5067385;28;20032;-81
2022/09/09 09:05:31;;;;;;;11.38;4.72;;;;;;;17.40;87.95;100698.69;5044319;28;20104;-80
2022/09/09 09:08:15;;;;;;;13.27;4.18;;;;;;;17.94;86.05;100692.94;5043842;28;20119;-79
2022/09/09 09:10:49;;;;;;;10.73;3.53;;;;;;;18.23;84.14;100684.66;5070796;28;20403;-82
2022/09/09 09:13:22;;;;;;;16.40;4.05;;;;;;;18.37;83.45;100697.72;5056373;28;20485;-83
2022/09/09 09:15:58;;;;;;;14.75;4.55;;;;;;;18.55;83.91;100696.56;5049847;28;20555;-81
2022/09/09 09:18:23;;;;;;;11.73;3.80;;;;;;;18.64;85.05;100697.56;5047115;28;20041;-83
2022/09/09 09:20:58;;;;;;;11.32;3.95;;;;;;;18.02;84.59;100702.06;5056043;28;20048;-83
2022/09/09 09:23:43;;;;;;;13.13;4.63;;;;;;;17.68;86.01;100692.53;5069624;28;20050;-83
2022/09/09 09:26:11;;;;;;;13.32;4.57;;;;;;;17.99;84.37;100714.28;5048661;28;20096;-80
2022/09/09 09:28:36;;;;;;;12.18;4.22;;;;;;;17.87;83.98;100710.81;5049746;28;20013;-80
2022/09/09 09:31:06;;;;;;;12.90;3.72;;;;;;;17.98;83.94;100698.50;5043960;28;20404;-81
2022/09/09 09:33:44;;;;;;;13.48;4.32;;;;;;;17.99;84.95;100706.56;5064456;28;20111;-82
2022/09/09 09:36:09;;;;;;;7.50;3.90;;;;;;;17.96;83.47;100710.28;5044502;28;20096;-83
2022/09/09 09:38:39;;;;;;;14.98;3.75;;;;;;;17.93;83.29;100708.31;5046600;28;20035;-80
2022/09/09 09:41:05;;;;;;;17.02;3.90;;;;;;;17.93;84.43;100711.13;5058139;22;20115;-73
2022/09/09 09:43:33;;;;;;;12.30;3.28;;;;;;;18.10;84.01;100708.41;5037399;28;20044;-71
2022/09/09 09:45:59;;;;;;;14.10;4.15;;;;;;;17.95;83.32;100705.84;5039794;28;20052;-73
2022/09/09 09:48:27;;;;;;;6.95;3.65;;;;;;;18.00;84.30;100716.66;5057718;22;20049;-83
2022/09/09 09:50:58;;;;;;;9.77;3.08;;;;;;;18.13;83.89;100716.84;5038413;28;20060;-83
2022/09/09 09:53:31;;;;;;;11.30;4.68;;;;;;;17.89;84.63;100716.06;5035826;28;20060;-82
2022/09/09 09:56:04;;;;;;;13.85;4.07;;;;;;;17.97;85.11;100720.38;5049696;28;20037;-83
2022/09/09 09:58:56;;;;;;;18.02;4.30;;;;;;;17.93;84.48;100719.63;5044067;28;20033;-82
2022/09/09 10:01:31;;;;;;;14.23;4.10;;;;;;;17.53;85.28;100713.84;5029553;23;20055;-83
2022/09/09 10:04:01;;;;;;;9.10;3.53;;;;;;;17.48;85.00;100717.16;5061729;28;20028;-82
2022/09/09 10:06:36;;;;;;;13.35;3.78;;;;;;;17.78;84.76;100723.94;5043441;28;20040;-82
2022/09/09 10:09:07;;;;;;;10.07;3.22;;;;;;;17.70;84.12;100720.41;5065182;28;20174;-82
2022/09/09 10:12:06;;;;;;;16.30;4.35;;;;;;;17.63;83.98;100712.84;5043972;28;20036;-82
2022/09/09 10:14:44;;;;;;;8.20;3.85;;;;;;;17.83;83.82;100726.28;5028239;28;20459;-83
2022/09/09 10:17:34;;;;;;;12.25;3.63;;;;;;;18.03;83.26;100715.00;5047106;28;20060;-83
2022/09/09 10:20:11;;;;;;;12.52;3.25;;;;;;;18.02;83.10;100719.06;5047335;28;20040;-82
2022/09/09 10:22:39;;;;;;;7.70;3.40;;;;;;;17.94;83.04;100720.41;5040191;28;20037;-82
2022/09/09 10:25:25;;;;;;;13.63;3.75;;;;;;;17.64;84.03;100717.25;5064650;28;20060;-83
2022/09/09 10:28:15;;;;;;;11.27;4.63;;;;;;;17.93;83.79;100722.47;5048160;28;20437;-83
2022/09/09 10:31:11;;;;;;;10.52;4.00;;;;;;;18.15;82.25;100719.22;5060675;28;20032;-84
2022/09/09 10:33:50;;;;;;;8.85;3.55;;;;;;;17.98;83.49;100710.66;5068149;28;20028;-83
2022/09/09 10:36:25;;;;;;;16.50;3.92;;;;;;;18.18;82.99;100722.00;5073586;28;20375;-83
2022/09/09 10:39:13;;;;;;;9.95;4.05;;;;;;;18.00;83.15;100713.81;5073595;28;20029;-83
2022/09/09 10:41:51;;;;;;;9.50;3.83;;;;;;;18.23;81.51;100715.81;5062541;28;20045;-83
2022/09/09 10:44:34;;;;;;;17.05;3.72;;;;;;;18.06;80.47;100714.91;5055073;28;20031;-83
2022/09/09 10:46:59;;;;;;;;;;;;;;;18.32;80.93;100706.75;5055709;28;20043;-83
2022/09/09 10:49:49;;;;;;;13.27;3.33;;;;;;;18.40;80.27;100701.72;5049547;28;19912;-83
2022/09/09 10:52:44;;;;;;;9.85;3.80;;;;;;;18.19;80.75;100686.75;5072734;28;20376;-83
2022/09/09 10:55:25;;;;;;;12.43;4.18;;;;;;;18.45;79.46;100702.00;5058015;28;20020;-84
2022/09/09 10:57:53;;;;;;;9.98;3.30;;;;;;;18.36;81.17;100701.81;5048917;28;20040;-84
2022/09/09 11:00:45;;;;;;;8.57;3.85;;;;;;;18.76;78.26;100695.28;5071398;28;20097;-84
2022/09/09 11:03:24;;;;;;;14.15;3.38;;;;;;;19.04;77.67;100700.34;5056826;28;20139;-85
2022/09/09 11:05:56;;;;;;;10.88;3.55;;;;;;;18.80;78.59;100705.31;5049218;28;20052;-84
2022/09/09 11:08:25;;;;;;;11.53;3.10;;;;;;;19.16;77.59;100695.19;5070464;28;20024;-84
2022/09/09 11:11:13;;;;;;;16.73;4.18;;;;;;;19.12;76.89;100695.31;5060649;28;20523;-84
2022/09/09 11:14:05;;;;;;;11.75;3.40;;;;;;;19.04;76.54;100700.34;5051075;28;20028;-84
2022/09/09 11:16:52;;;;;;;10.18;4.20;;;;;;;19.54;75.44;100684.13;5065253;28;20036;-82
2022/09/09 11:19:36;;;;;;;14.43;2.92;;;;;;;19.66;74.34;100691.91;5046684;28;20044;-82
2022/09/09 11:22:08;;;;;;;10.90;3.50;;;;;;;19.47;74.52;100693.63;5046829;28;20116;-84
2022/09/09 11:24:42;;;;;;;10.32;3.33;;;;;;;19.26;75.24;100685.63;5053486;28;20041;-83
2022/09/09 11:27:18;;;;;;;13.43;3.03;;;;;;;18.99;75.18;100686.66;5062885;28;20382;-84
2022/09/09 11:30:06;;;;;;;7.45;2.83;;;;;;;18.92;74.83;100686.06;5043800;28;20037;-83
2022/09/09 11:32:39;;;;;;;9.32;2.58;;;;;;;18.89;75.90;100694.22;5057639;28;20041;-84
2022/09/09 11:35:17;;;;;;;7.90;3.53;;;;;;;18.63;76.78;100692.31;5064167;28;20493;-83
2022/09/09 11:38:06;;;;;;;9.30;2.80;;;;;;;18.73;77.03;100710.34;5057061;28;20099;-83
2022/09/09 11:40:32;;;;;;;6.63;3.08;;;;;;;18.26;81.07;100708.50;5041938;28;20191;-83
2022/09/09 11:43:09;;;;;;;9.05;3.10;;;;;;;18.33;81.61;100708.34;5061595;28;20131;-84